Time;durP1;ratioP1;P1;durP2;ratioP2;P2;SDS_P1;SDS_P2;PMS_P1;PMS_P2;Temp;Humidity;BMP_temperature;BMP_pressure;BME280_temperature;BME280_humidity;BME280_pressure;Samples;Min_cycle;Max_cycle;Signal;HPM_P1;HPM_P2
2022/03/09 00:00:30;;;;;;;24.42;10.27;;;;;;;1.75;54.67;101976.84;5028538;28;20106;-76
2022/03/09 00:02:55;;;;;;;23.48;9.60;;;;;;;1.72;55.28;101971.59;5044439;28;20453;-76
2022/03/09 00:05:20;;;;;;;23.98;9.55;;;;;;;1.63;55.70;101969.13;5029507;28;20565;-77
2022/03/09 00:07:45;;;;;;;25.13;9.80;;;;;;;1.63;55.58;101977.06;5048440;28;20098;-77
2022/03/09 00:10:11;;;;;;;22.13;9.63;;;;;;;1.57;56.16;101977.19;5048172;28;20025;-77
2022/03/09 00:12:36;;;;;;;23.65;9.68;;;;;;;1.54;55.41;101975.47;5028619;28;20087;-76
2022/03/09 00:15:01;;;;;;;24.30;11.50;;;;;;;1.57;55.94;101972.75;5047580;28;20095;-76
2022/03/09 00:17:26;;;;;;;24.23;11.00;;;;;;;1.58;55.63;101976.25;5048833;28;20033;-76
2022/03/09 00:19:52;;;;;;;22.10;9.60;;;;;;;1.63;55.24;101978.84;5030902;28;20550;-76
2022/03/09 00:22:17;;;;;;;23.75;9.63;;;;;;;1.61;54.95;101981.53;5029775;28;20114;-76
2022/03/09 00:24:43;;;;;;;22.50;9.13;;;;;;;1.61;55.33;101985.94;5049385;28;20056;-76
2022/03/09 00:27:08;;;;;;;23.90;10.95;;;;;;;1.58;56.30;101981.56;5049854;28;20087;-76
2022/03/09 00:29:34;;;;;;;23.92;10.40;;;;;;;1.51;56.19;101982.59;5051702;28;20035;-76
2022/03/09 00:31:59;;;;;;;22.73;8.98;;;;;;;1.45;56.17;101980.94;5029690;28;20116;-76
2022/03/09 00:34:25;;;;;;;23.15;9.88;;;;;;;1.40;57.28;101983.63;5034760;28;20091;-76
2022/03/09 00:36:50;;;;;;;22.65;9.63;;;;;;;1.36;56.47;101984.59;5033602;28;20029;-76
2022/03/09 00:39:15;;;;;;;21.45;9.18;;;;;;;1.32;56.02;101982.03;5033437;28;20469;-76
2022/03/09 00:41:41;;;;;;;25.58;9.38;;;;;;;1.23;57.02;101985.72;5031682;28;20025;-76
2022/03/09 00:44:06;;;;;;;23.23;10.25;;;;;;;1.17;57.33;101975.19;5051064;28;20542;-76
2022/03/09 00:46:32;;;;;;;25.00;10.23;;;;;;;1.15;57.20;101982.28;5052117;28;20064;-76
2022/03/09 00:48:57;;;;;;;23.52;9.75;;;;;;;1.11;57.58;101985.88;5051349;28;20024;-76
2022/03/09 00:51:22;;;;;;;22.83;8.30;;;;;;;1.06;57.76;101985.97;5032890;28;20040;-76
2022/03/09 00:53:48;;;;;;;20.83;9.00;;;;;;;1.04;57.46;101980.69;5051797;28;20021;-76
2022/03/09 00:56:14;;;;;;;21.90;9.65;;;;;;;0.98;58.74;101983.44;5048932;28;20111;-76
2022/03/09 00:58:40;;;;;;;21.65;8.00;;;;;;;0.96;57.92;101981.72;5032710;28;21327;-76
2022/03/09 01:01:05;;;;;;;23.25;9.23;;;;;;;0.98;57.90;101987.84;5050786;28;20029;-76
2022/03/09 01:03:30;;;;;;;22.60;8.32;;;;;;;0.94;57.56;101984.38;5054783;28;20032;-77
2022/03/09 01:05:55;;;;;;;18.80;7.32;;;;;;;0.90;57.02;101987.97;5033404;28;20036;-76
2022/03/09 01:08:21;;;;;;;22.60;8.10;;;;;;;0.84;58.39;101978.34;5050621;28;20056;-76
2022/03/09 01:10:46;;;;;;;20.70;7.65;;;;;;;0.81;58.40;101986.31;5031556;28;20041;-76
2022/03/09 01:13:11;;;;;;;24.63;8.95;;;;;;;0.77;58.57;101986.38;5049677;28;20029;-76
2022/03/09 01:15:37;;;;;;;22.15;8.32;;;;;;;0.79;58.67;101980.19;5051075;28;20048;-76
2022/03/09 01:18:02;;;;;;;21.75;8.68;;;;;;;0.90;57.37;101982.66;5051617;28;20071;-76
2022/03/09 01:20:27;;;;;;;20.98;7.38;;;;;;;0.93;56.78;101985.25;5032325;28;20021;-76
2022/03/09 01:22:52;;;;;;;21.88;9.07;;;;;;;1.06;56.00;101977.16;5050344;28;20029;-76
2022/03/09 01:25:18;;;;;;;21.17;7.47;;;;;;;1.12;56.78;101977.06;5032546;28;20453;-76
2022/03/09 01:27:43;;;;;;;19.05;7.03;;;;;;;1.13;55.68;101976.13;5031053;28;20060;-76
2022/03/09 01:30:09;;;;;;;22.25;7.30;;;;;;;1.21;55.18;101982.19;5047264;28;20067;-76
2022/03/09 01:32:34;;;;;;;24.70;8.27;;;;;;;1.31;55.21;101974.97;5051072;28;20109;-76
2022/03/09 01:35:00;;;;;;;23.38;9.10;;;;;;;1.38;54.90;101980.13;5037719;28;20084;-76
2022/03/09 01:37:25;;;;;;;21.77;7.72;;;;;;;1.48;53.65;101975.56;5049540;28;20033;-76
2022/03/09 01:39:50;;;;;;;24.23;8.02;;;;;;;1.57;53.56;101979.84;5032947;28;20396;-76
2022/03/09 01:42:16;;;;;;;24.40;8.52;;;;;;;1.64;53.50;101972.63;5030614;28;20043;-76
2022/03/09 01:44:41;;;;;;;23.88;8.95;;;;;;;1.63;53.73;101974.44;5050823;28;20086;-76
2022/03/09 01:47:07;;;;;;;19.80;6.97;;;;;;;1.65;54.13;101972.59;5050715;28;20033;-76
2022/03/09 01:49:33;;;;;;;21.17;7.40;;;;;;;1.69;53.25;101969.00;5031784;28;20032;-76
2022/03/09 01:52:00;;;;;;;22.25;7.50;;;;;;;1.69;53.15;101969.00;5032342;28;20120;-76
2022/03/09 01:54:26;;;;;;;20.88;7.63;;;;;;;1.71;52.82;101961.91;5049784;28;20028;-76
2022/03/09 01:56:52;;;;;;;24.13;6.97;;;;;;;1.72;52.59;101962.78;5051388;28;20029;-76
2022/03/09 01:59:17;;;;;;;19.02;7.43;;;;;;;1.73;52.81;101957.44;5049662;28;20036;-76
2022/03/09 02:01:45;;;;;;;21.60;8.18;;;;;;;1.73;52.87;101961.88;5050899;28;20050;-77
2022/03/09 02:04:10;;;;;;;21.08;7.85;;;;;;;1.73;52.58;101956.59;5051411;28;20021;-77
2022/03/09 02:06:38;;;;;;;20.35;8.05;;;;;;;1.72;52.98;101957.47;5050003;28;20147;-77
2022/03/09 02:11:51;;;;;;;20.92;7.45;;;;;;;1.71;53.26;101959.28;5050153;28;20549;-76
2022/03/09 02:14:30;;;;;;;21.02;7.47;;;;;;;1.74;52.76;101960.97;5045661;28;20033;-76
2022/03/09 02:16:57;;;;;;;19.70;7.27;;;;;;;1.72;53.02;101962.78;5033019;28;20029;-77
2022/03/09 02:19:22;;;;;;;21.23;7.68;;;;;;;1.73;52.68;101959.25;5031182;28;20378;-76
2022/03/09 02:21:52;;;;;;;23.40;8.43;;;;;;;1.73;53.27;101969.84;5049688;28;20036;-77
2022/03/09 02:24:18;;;;;;;;;;;;;;;1.82;52.44;101966.16;5032605;28;20078;-77
2022/03/09 02:26:43;;;;;;;23.33;7.35;;;;;;;1.77;52.58;101962.69;5049513;28;19924;-76
2022/03/09 02:29:08;;;;;;;20.77;7.70;;;;;;;1.77;52.39;101966.19;5050288;28;20060;-76
2022/03/09 02:31:34;;;;;;;21.05;7.32;;;;;;;1.75;52.65;101962.72;5049593;28;20048;-76
2022/03/09 02:33:59;;;;;;;21.30;7.82;;;;;;;1.71;53.30;101959.28;5041679;28;20086;-76
2022/03/09 02:36:24;;;;;;;25.30;8.48;;;;;;;1.70;53.46;101965.47;5031524;28;20036;-76
2022/03/09 02:38:50;;;;;;;20.15;7.00;;;;;;;1.65;53.20;101962.00;5050079;28;20037;-76
2022/03/09 02:41:16;;;;;;;22.85;8.35;;;;;;;1.68;53.01;101961.94;5049670;28;20087;-76
2022/03/09 02:43:41;;;;;;;19.85;7.05;;;;;;;1.67;52.94;101957.56;5050695;28;20110;-76
2022/03/09 02:46:06;;;;;;;24.30;8.30;;;;;;;1.67;53.03;101959.31;5049801;28;20033;-76
2022/03/09 02:48:31;;;;;;;23.98;9.70;;;;;;;1.66;53.18;101952.31;5048873;28;20035;-76
2022/03/09 02:50:57;;;;;;;22.23;8.35;;;;;;;1.65;53.27;101945.25;5031304;28;20493;-76
2022/03/09 02:53:22;;;;;;;21.30;7.55;;;;;;;1.65;53.31;101937.28;5049764;28;20033;-76
2022/03/09 02:55:47;;;;;;;25.52;8.32;;;;;;;1.61;53.10;101938.25;5031061;28;20025;-76
2022/03/09 02:58:12;;;;;;;20.05;6.97;;;;;;;1.58;53.73;101944.47;5031349;28;20522;-76
2022/03/09 03:00:38;;;;;;;20.90;7.97;;;;;;;1.58;53.53;101936.53;5032606;28;20044;-76
2022/03/09 03:03:03;;;;;;;20.35;7.82;;;;;;;1.59;53.35;101946.22;5051674;28;20016;-76
2022/03/09 03:05:28;;;;;;;21.98;8.40;;;;;;;1.60;53.65;101953.28;5049576;28;20032;-76
2022/03/09 03:07:53;;;;;;;20.42;7.13;;;;;;;1.56;53.59;101941.84;5031551;28;20103;-76
2022/03/09 03:10:19;;;;;;;24.02;8.77;;;;;;;1.54;53.99;101948.97;5031198;28;20426;-76
2022/03/09 03:12:44;;;;;;;21.98;8.60;;;;;;;1.51;53.98;101943.72;5031829;28;20025;-76
2022/03/09 03:15:09;;;;;;;22.90;7.90;;;;;;;1.53;53.42;101946.34;5048928;28;20068;-76
2022/03/09 03:17:38;;;;;;;20.80;7.93;;;;;;;1.47;53.88;101947.31;5049430;28;20388;-76
2022/03/09 03:20:05;;;;;;;24.02;8.48;;;;;;;1.45;53.79;101953.53;5030673;28;20480;-76
2022/03/09 03:22:30;;;;;;;20.42;7.97;;;;;;;1.43;53.91;101950.06;5030734;28;20108;-76
2022/03/09 03:24:55;;;;;;;22.77;8.73;;;;;;;1.42;53.88;101958.91;5049373;28;20506;-76
2022/03/09 03:27:21;;;;;;;23.10;8.20;;;;;;;1.39;53.95;101939.53;5047622;28;20100;-76
2022/03/09 03:29:46;;;;;;;21.50;8.95;;;;;;;1.35;54.50;101943.13;5049669;28;20037;-76
2022/03/09 03:32:11;;;;;;;22.95;7.75;;;;;;;1.33;54.12;101946.69;5030497;28;20033;-76
2022/03/09 03:34:37;;;;;;;21.35;8.70;;;;;;;1.30;54.70;101939.66;5049764;28;20361;-76
2022/03/09 03:37:02;;;;;;;20.67;8.30;;;;;;;1.26;55.17;101943.28;5049102;28;20292;-76
2022/03/09 03:39:27;;;;;;;20.02;8.20;;;;;;;1.22;54.96;101946.88;5031755;28;20460;-76
2022/03/09 03:41:53;;;;;;;21.80;8.02;;;;;;;1.22;54.78;101942.44;5048412;28;20484;-76
2022/03/09 03:44:18;;;;;;;19.40;7.10;;;;;;;1.24;54.66;101939.75;5048865;28;20044;-76
2022/03/09 03:46:44;;;;;;;23.48;7.80;;;;;;;1.23;55.26;101943.34;5049556;28;20020;-76
2022/03/09 03:49:09;;;;;;;29.02;9.13;;;;;;;1.22;54.80;101942.44;5047599;28;20056;-76
2022/03/09 03:51:35;;;;;;;21.58;8.48;;;;;;;1.22;54.46;101937.16;5048896;28;20032;-76
2022/03/09 03:54:00;;;;;;;22.35;8.15;;;;;;;1.22;54.59;101944.22;5049870;28;20151;-76
2022/03/09 03:56:25;;;;;;;22.00;7.05;;;;;;;1.23;54.89;101948.63;5048164;28;20048;-76
2022/03/09 03:58:50;;;;;;;21.70;7.55;;;;;;;1.25;55.07;101945.97;5047849;28;20047;-76
2022/03/09 04:01:16;;;;;;;21.10;8.70;;;;;;;1.24;54.60;101950.34;5051344;28;20040;-76
2022/03/09 04:03:41;;;;;;;21.60;8.02;;;;;;;1.21;54.91;101950.41;5036256;28;20021;-77
2022/03/09 04:06:06;;;;;;;19.52;8.07;;;;;;;1.19;54.57;101950.44;5034607;28;20029;-77
2022/03/09 04:08:31;;;;;;;21.17;8.43;;;;;;;1.19;54.93;101952.22;5052469;28;20059;-77
2022/03/09 04:10:58;;;;;;;25.17;8.65;;;;;;;1.16;54.89;101950.50;5033906;28;20400;-77
2022/03/09 04:13:23;;;;;;;21.48;9.02;;;;;;;1.17;54.86;101951.34;5033558;28;20033;-77
2022/03/09 04:15:48;;;;;;;21.58;7.47;;;;;;;1.15;54.83;101959.31;5034511;28;20040;-77
2022/03/09 04:18:13;;;;;;;24.88;9.00;;;;;;;1.14;55.09;101954.06;5052490;28;20033;-77
2022/03/09 04:20:39;;;;;;;27.08;8.27;;;;;;;1.12;54.89;101947.94;5033405;28;20024;-77
2022/03/09 04:23:08;;;;;;;20.13;7.13;;;;;;;1.11;55.57;101943.53;5017166;28;20076;-77
2022/03/09 04:25:35;;;;;;;20.17;7.82;;;;;;;1.11;55.11;101943.53;5051603;28;20040;-77
2022/03/09 04:28:00;;;;;;;23.73;8.40;;;;;;;1.10;55.08;101937.38;5050824;28;20035;-77
2022/03/09 04:30:25;;;;;;;26.73;8.43;;;;;;;1.09;55.40;101940.91;5053178;28;20104;-77
2022/03/09 04:32:51;;;;;;;22.48;8.07;;;;;;;1.10;55.31;101941.75;5052466;28;20025;-76
2022/03/09 04:35:16;;;;;;;22.00;7.82;;;;;;;1.09;55.10;101935.59;5053291;28;20036;-77
2022/03/09 04:37:41;;;;;;;25.83;9.20;;;;;;;1.07;55.13;101942.72;5053950;28;20515;-77
2022/03/09 04:40:07;;;;;;;20.60;7.90;;;;;;;1.07;55.05;101937.41;5033863;28;20116;-76
2022/03/09 04:42:33;;;;;;;22.63;8.18;;;;;;;1.07;55.38;101934.78;5052201;28;20534;-76
2022/03/09 04:44:58;;;;;;;21.00;7.82;;;;;;;1.06;55.05;101940.09;5052575;28;20025;-76
2022/03/09 04:47:24;;;;;;;18.90;7.32;;;;;;;1.04;55.48;101937.47;5033827;28;20053;-76
2022/03/09 04:49:51;;;;;;;22.50;8.70;;;;;;;1.02;55.28;101937.47;5051234;28;20029;-76
2022/03/09 04:52:17;;;;;;;21.83;7.05;;;;;;;1.00;55.59;101936.63;5051436;28;20025;-76
2022/03/09 04:54:42;;;;;;;21.90;7.75;;;;;;;0.94;55.70;101935.84;5034144;28;20590;-76
2022/03/09 04:57:07;;;;;;;24.58;8.35;;;;;;;0.93;55.59;101936.75;5050376;28;20029;-76
2022/03/09 04:59:32;;;;;;;20.30;7.38;;;;;;;0.90;55.63;101937.66;5032260;28;20078;-76
2022/03/09 05:01:58;;;;;;;23.85;8.07;;;;;;;0.89;55.71;101933.25;5051556;28;20021;-76
2022/03/09 05:04:23;;;;;;;22.42;8.38;;;;;;;0.87;55.61;101929.78;5049557;28;20029;-77
2022/03/09 05:06:48;;;;;;;22.30;7.82;;;;;;;0.87;55.67;101933.28;5033852;28;20097;-76
2022/03/09 05:09:14;;;;;;;25.20;7.93;;;;;;;0.86;55.39;101930.66;5032677;28;20043;-76
2022/03/09 05:11:39;;;;;;;21.38;7.65;;;;;;;0.86;55.91;101934.22;5049899;28;20037;-76
2022/03/09 05:14:04;;;;;;;20.80;8.13;;;;;;;0.85;55.80;101935.09;5034152;28;20029;-76
2022/03/09 05:16:30;;;;;;;23.35;9.30;;;;;;;0.83;55.46;101938.66;5050791;28;20476;-76
2022/03/09 05:18:55;;;;;;;21.35;8.45;;;;;;;0.84;55.84;101937.78;5032984;28;20139;-76
2022/03/09 05:21:20;;;;;;;23.05;8.57;;;;;;;0.78;56.15;101943.16;5032947;28;20492;-76
2022/03/09 05:23:46;;;;;;;22.75;8.63;;;;;;;0.74;55.93;101938.81;5052098;28;20028;-76
2022/03/09 05:26:11;;;;;;;21.73;8.65;;;;;;;0.72;55.81;101940.59;5032404;28;20029;-76
2022/03/09 05:28:36;;;;;;;22.70;7.43;;;;;;;0.73;55.56;101942.34;5033797;28;20035;-76
2022/03/09 05:31:02;;;;;;;22.52;9.02;;;;;;;0.69;56.05;101947.69;5029724;28;20033;-76
2022/03/09 05:33:27;;;;;;;21.50;7.38;;;;;;;0.71;56.15;101938.84;5052590;28;20676;-76
2022/03/09 05:35:53;;;;;;;20.67;7.57;;;;;;;0.69;55.96;101949.47;5032856;28;20036;-76
2022/03/09 05:38:18;;;;;;;19.95;7.10;;;;;;;0.68;56.11;101945.06;5050492;28;20039;-76
2022/03/09 05:40:43;;;;;;;20.33;7.68;;;;;;;0.67;56.23;101948.59;5033055;28;20033;-76
2022/03/09 05:43:08;;;;;;;27.60;8.70;;;;;;;0.66;55.55;101945.09;5050114;28;20388;-76
2022/03/09 05:45:34;;;;;;;21.80;7.88;;;;;;;0.65;56.01;101948.63;5051563;28;20032;-76
2022/03/09 05:47:59;;;;;;;19.48;7.35;;;;;;;0.65;55.74;101942.47;5051302;28;20047;-76
2022/03/09 05:50:24;;;;;;;21.00;7.60;;;;;;;0.67;55.41;101953.88;5049887;28;20412;-76
2022/03/09 05:52:50;;;;;;;20.17;6.90;;;;;;;0.65;56.23;101951.25;5051662;28;20025;-76
2022/03/09 05:55:15;;;;;;;20.02;7.22;;;;;;;0.67;55.99;101960.06;5032088;28;20025;-76
2022/03/09 05:57:41;;;;;;;23.80;8.23;;;;;;;0.67;55.89;101962.72;5050371;28;20029;-76
2022/03/09 06:00:07;;;;;;;23.13;8.15;;;;;;;0.68;55.69;101969.75;5051220;28;20029;-76
2022/03/09 06:02:33;;;;;;;20.70;7.30;;;;;;;0.71;55.67;101974.13;5046329;28;20031;-76
2022/03/09 06:04:58;;;;;;;20.77;7.32;;;;;;;0.73;55.65;101982.91;5053927;28;20563;-76
2022/03/09 06:07:23;;;;;;;22.70;8.63;;;;;;;0.72;55.86;101988.22;5050311;28;20531;-76
2022/03/09 06:09:49;;;;;;;23.80;8.43;;;;;;;0.73;56.05;101984.69;5033694;28;20381;-76
2022/03/09 06:12:15;;;;;;;21.98;8.50;;;;;;;0.72;56.40;101989.09;5048682;28;20039;-76
2022/03/09 06:14:40;;;;;;;22.33;7.80;;;;;;;0.66;56.80;101983.91;5050487;28;20090;-76
2022/03/09 06:17:05;;;;;;;22.88;8.45;;;;;;;0.55;57.28;101991.97;5032358;28;20036;-76
2022/03/09 06:19:31;;;;;;;21.50;8.20;;;;;;;0.46;57.72;101992.97;5051279;28;20033;-76
2022/03/09 06:21:56;;;;;;;23.02;8.77;;;;;;;0.38;57.53;101993.94;5049339;28;20600;-76
2022/03/09 06:24:21;;;;;;;26.85;9.65;;;;;;;0.27;58.15;101989.66;5049999;28;20129;-76
2022/03/09 06:26:46;;;;;;;22.65;8.73;;;;;;;0.22;58.38;101994.16;5049265;28;20033;-76
2022/03/09 06:29:12;;;;;;;22.05;7.78;;;;;;;0.14;58.72;101993.34;5049392;28;20032;-76
2022/03/09 06:31:38;;;;;;;24.20;9.75;;;;;;;0.12;58.90;101990.72;5051281;28;20021;-76
2022/03/09 06:34:03;;;;;;;22.80;8.93;;;;;;;0.10;59.64;102002.22;5046918;28;20067;-76
2022/03/09 06:36:28;;;;;;;23.90;9.05;;;;;;;0.13;59.26;102002.16;5049754;28;20056;-76
2022/03/09 06:38:54;;;;;;;23.98;8.70;;;;;;;0.16;58.92;101999.50;5032486;28;20064;-76
2022/03/09 06:41:19;;;;;;;20.42;7.43;;;;;;;0.20;58.81;102006.50;5049428;28;20548;-76
2022/03/09 06:43:45;;;;;;;22.33;7.60;;;;;;;0.28;58.19;102002.00;5031392;28;20036;-77
2022/03/09 06:46:11;;;;;;;22.25;7.82;;;;;;;0.38;58.16;102007.16;5049697;28;20040;-77
2022/03/09 06:48:36;;;;;;;22.33;8.80;;;;;;;0.48;58.17;102012.34;5048653;28;20103;-76
2022/03/09 06:51:02;;;;;;;24.67;9.25;;;;;;;0.57;57.61;102021.03;5031216;28;20544;-76
2022/03/09 06:53:27;;;;;;;23.88;9.70;;;;;;;0.63;57.18;102020.97;5049765;28;20059;-76
2022/03/09 06:55:53;;;;;;;22.23;7.82;;;;;;;0.67;57.34;102034.16;5031345;28;20037;-76
2022/03/09 06:58:18;;;;;;;22.58;8.63;;;;;;;0.69;57.65;102034.13;5048667;28;20078;-76
2022/03/09 07:00:44;;;;;;;21.50;7.47;;;;;;;0.72;57.26;102036.72;5050231;28;20041;-76
2022/03/09 07:03:09;;;;;;;21.00;8.45;;;;;;;0.76;58.09;102038.44;5051465;28;20116;-76
2022/03/09 07:05:35;;;;;;;22.25;7.88;;;;;;;0.81;57.57;102035.75;5039590;28;20060;-76
2022/03/09 07:08:01;;;;;;;23.73;8.65;;;;;;;0.87;56.67;102044.44;5047951;28;20055;-76
2022/03/09 07:10:27;;;;;;;23.33;8.48;;;;;;;0.95;56.92;102036.44;5050085;28;20041;-76
2022/03/09 07:12:52;;;;;;;21.38;7.85;;;;;;;0.99;56.29;102038.09;5029713;28;20108;-76
2022/03/09 07:15:18;;;;;;;20.95;8.05;;;;;;;1.09;55.83;102032.69;5030731;28;20491;-76
2022/03/09 07:17:46;;;;;;;20.73;8.18;;;;;;;1.14;55.80;102044.09;5032663;28;20116;-76
2022/03/09 07:20:12;;;;;;;22.35;8.18;;;;;;;1.24;55.47;102044.84;5048204;28;20041;-75
2022/03/09 07:22:42;;;;;;;20.60;7.63;;;;;;;1.32;54.74;102042.97;5048989;28;20032;-76
2022/03/09 07:25:09;;;;;;;21.65;8.82;;;;;;;1.40;54.66;102039.25;5048119;28;20041;-76
2022/03/09 07:27:34;;;;;;;21.98;8.35;;;;;;;1.46;54.60;102033.00;5046776;28;20116;-76
2022/03/09 07:29:59;;;;;;;20.85;7.53;;;;;;;1.55;54.14;102030.22;5048995;28;20107;-76
2022/03/09 07:32:24;;;;;;;21.63;8.18;;;;;;;1.64;53.55;102033.59;5037720;28;20033;-77
2022/03/09 07:34:50;;;;;;;20.73;7.88;;;;;;;1.73;53.97;102033.44;5061850;28;20532;-77
2022/03/09 07:37:15;;;;;;;25.15;8.75;;;;;;;1.79;53.69;102030.69;5030191;28;20380;-78
2022/03/09 07:39:40;;;;;;;20.50;8.20;;;;;;;1.89;53.27;102034.06;5031026;28;20032;-81
2022/03/09 07:42:06;;;;;;;22.73;8.27;;;;;;;1.98;53.06;102031.22;5049033;28;20515;-78
2022/03/09 07:44:31;;;;;;;21.98;7.55;;;;;;;2.06;52.70;102025.78;5030672;28;20129;-78
2022/03/09 07:46:57;;;;;;;20.67;7.47;;;;;;;2.15;52.30;102027.38;5029866;28;20033;-78
2022/03/09 07:49:22;;;;;;;24.60;9.18;;;;;;;2.22;52.40;102032.53;5049148;28;20410;-78
2022/03/09 07:51:48;;;;;;;22.88;8.75;;;;;;;2.31;52.01;102020.84;5046567;28;20094;-79
2022/03/09 07:54:14;;;;;;;25.13;9.02;;;;;;;2.37;51.92;102023.41;5044464;28;20108;-79
2022/03/09 07:56:39;;;;;;;21.63;8.38;;;;;;;2.45;52.22;102026.75;5048544;28;20037;-78
2022/03/09 07:59:06;;;;;;;22.80;8.43;;;;;;;2.52;51.54;102029.28;5032308;28;20083;-77
2022/03/09 08:01:31;;;;;;;22.38;8.82;;;;;;;2.61;51.02;102034.44;5049344;28;20056;-77
2022/03/09 08:03:57;;;;;;;23.63;8.43;;;;;;;2.68;51.19;102036.03;5055738;28;20112;-78
2022/03/09 08:06:22;;;;;;;20.38;8.02;;;;;;;2.75;50.58;102032.34;5048790;28;20028;-78
2022/03/09 08:08:47;;;;;;;24.73;8.85;;;;;;;2.83;50.91;102036.63;5031620;28;20346;-78
2022/03/09 08:11:13;;;;;;;21.05;8.07;;;;;;;2.91;50.67;102037.31;5029613;28;20127;-78
2022/03/09 08:13:39;;;;;;;23.85;9.07;;;;;;;2.98;50.58;102041.59;5049499;28;20393;-78
2022/03/09 08:16:04;;;;;;;22.10;8.88;;;;;;;3.04;49.85;102044.09;5049158;28;20032;-77
2022/03/09 08:18:30;;;;;;;23.48;8.18;;;;;;;3.12;49.36;102044.81;5030392;28;20031;-78
2022/03/09 08:20:55;;;;;;;22.33;9.05;;;;;;;3.19;50.41;102052.63;5030651;28;20052;-78
2022/03/09 08:23:22;;;;;;;23.95;9.30;;;;;;;3.28;49.61;102053.28;5045134;28;20063;-78
2022/03/09 08:25:48;;;;;;;20.58;8.93;;;;;;;3.35;49.51;102056.66;5046177;28;20084;-78
2022/03/09 08:28:13;;;;;;;22.23;9.00;;;;;;;3.40;48.56;102052.13;5057371;28;20509;-78
2022/03/09 08:30:40;;;;;;;24.70;8.70;;;;;;;3.47;48.84;102048.41;5051245;28;20037;-78
2022/03/09 08:33:06;;;;;;;20.23;7.38;;;;;;;3.56;48.61;102051.75;5047594;28;20130;-78
2022/03/09 08:35:32;;;;;;;24.30;9.05;;;;;;;3.63;48.22;102045.38;5034577;28;20033;-78
2022/03/09 08:37:57;;;;;;;23.40;8.85;;;;;;;3.70;48.52;102054.06;5058439;28;20025;-78
2022/03/09 08:40:23;;;;;;;21.92;9.35;;;;;;;3.74;48.54;102053.94;5047560;28;20048;-78
2022/03/09 08:42:48;;;;;;;21.50;9.10;;;;;;;3.77;48.88;102053.00;5047158;28;20663;-78
2022/03/09 08:45:13;;;;;;;23.90;9.88;;;;;;;3.85;48.77;102065.19;5031984;28;20476;-78
2022/03/09 08:47:39;;;;;;;23.80;9.82;;;;;;;3.92;48.42;102065.03;5059225;28;20031;-78
2022/03/09 08:50:05;;;;;;;23.88;9.35;;;;;;;3.97;48.66;102068.47;5050826;28;20029;-78
2022/03/09 08:52:31;;;;;;;23.45;9.55;;;;;;;4.03;47.93;102066.50;5033053;28;20401;-78
2022/03/09 08:54:56;;;;;;;23.17;9.05;;;;;;;4.08;48.32;102060.19;5052449;28;20070;-78
2022/03/09 08:57:21;;;;;;;22.20;9.20;;;;;;;4.11;48.53;102054.78;5049335;28;20108;-77
2022/03/09 08:59:47;;;;;;;24.50;10.30;;;;;;;4.17;47.88;102059.94;5059839;28;20036;-78
2022/03/09 09:02:12;;;;;;;23.08;9.48;;;;;;;4.23;48.49;102064.22;5052443;28;20048;-78
2022/03/09 09:04:38;;;;;;;23.75;10.05;;;;;;;4.30;48.39;102064.00;5054847;28;20027;-77
2022/03/09 09:07:03;;;;;;;25.45;10.30;;;;;;;4.36;47.62;102071.84;5063014;28;20055;-77
2022/03/09 09:09:28;;;;;;;26.02;10.98;;;;;;;4.43;47.30;102061.88;5059258;28;20036;-78
2022/03/09 09:11:54;;;;;;;24.00;10.57;;;;;;;4.48;47.40;102065.28;5055205;28;20041;-78
2022/03/09 09:14:20;;;;;;;22.05;9.52;;;;;;;4.55;47.51;102061.53;5051824;28;20025;-78
2022/03/09 09:16:45;;;;;;;24.98;11.43;;;;;;;4.61;47.93;102054.28;5050796;28;20127;-76
2022/03/09 09:19:11;;;;;;;23.50;9.68;;;;;;;4.67;47.10;102054.09;5034972;28;20025;-77
2022/03/09 09:21:37;;;;;;;24.27;10.55;;;;;;;4.76;47.34;102052.94;5049460;28;20044;-77
2022/03/09 09:24:02;;;;;;;25.80;10.60;;;;;;;4.80;47.65;102058.16;5052225;28;20039;-78
2022/03/09 09:26:27;;;;;;;25.15;10.35;;;;;;;4.88;47.16;102057.94;5049597;28;20108;-78
2022/03/09 09:28:52;;;;;;;24.55;9.93;;;;;;;4.93;46.89;102053.31;5033242;28;20106;-78
2022/03/09 09:31:18;;;;;;;25.83;9.68;;;;;;;5.02;47.42;102050.41;5031430;28;20465;-78
2022/03/09 09:33:43;;;;;;;24.45;11.02;;;;;;;5.09;47.34;102051.06;5038983;28;20032;-78
2022/03/09 09:36:08;;;;;;;25.30;11.00;;;;;;;5.16;46.56;102049.94;5049399;28;20033;-77
2022/03/09 09:38:33;;;;;;;25.25;11.10;;;;;;;5.22;46.73;102051.56;5052741;28;20045;-77
2022/03/09 09:40:59;;;;;;;25.10;11.48;;;;;;;5.29;46.91;102053.13;5032896;28;20051;-78
2022/03/09 09:43:24;;;;;;;26.88;11.48;;;;;;;5.36;47.05;102051.09;5049756;28;20028;-78
2022/03/09 09:45:51;;;;;;;23.10;11.30;;;;;;;5.42;46.39;102053.59;5050166;28;20566;-78
2022/03/09 09:48:19;;;;;;;26.58;10.65;;;;;;;5.51;47.26;102053.28;5059354;28;20036;-78
2022/03/09 09:50:45;;;;;;;24.02;11.13;;;;;;;5.56;46.94;102050.47;5058904;28;20033;-78
2022/03/09 09:53:12;;;;;;;26.40;12.52;;;;;;;5.64;46.27;102056.44;5040745;28;20780;-78
2022/03/09 09:55:39;;;;;;;25.50;11.80;;;;;;;5.70;47.13;102052.69;5062275;28;20032;-78
2022/03/09 09:58:04;;;;;;;25.02;9.93;;;;;;;5.73;46.87;102057.91;5067893;28;20407;-78
2022/03/09 10:00:31;;;;;;;26.55;11.85;;;;;;;5.80;46.63;102054.13;5051553;28;20025;-78
2022/03/09 10:02:56;;;;;;;29.55;12.60;;;;;;;5.87;46.93;102058.31;5067938;28;20033;-78
2022/03/09 10:05:22;;;;;;;26.77;13.15;;;;;;;5.94;47.62;102054.53;5051338;28;20656;-78
2022/03/09 10:08:06;;;;;;;25.23;11.10;;;;;;;5.98;47.26;102057.97;5049380;28;20049;-78
2022/03/09 10:10:33;;;;;;;23.17;11.68;;;;;;;6.06;47.04;102055.94;5049419;28;20360;-78
2022/03/09 10:13:18;;;;;;;27.95;12.13;;;;;;;6.12;47.25;102052.19;5052389;28;20040;-78
2022/03/09 10:16:06;;;;;;;27.48;11.77;;;;;;;6.21;46.84;102051.84;5050063;28;20040;-78
2022/03/09 10:18:32;;;;;;;25.05;11.25;;;;;;;6.29;46.59;102052.41;5047643;28;20366;-78
2022/03/09 10:21:11;;;;;;;26.20;12.85;;;;;;;6.35;47.34;102042.47;5058140;28;20111;-78
2022/03/09 10:23:54;;;;;;;27.98;12.25;;;;;;;6.42;46.86;102035.97;5069866;28;20028;-78
2022/03/09 10:26:23;;;;;;;28.92;11.98;;;;;;;6.51;47.43;102038.28;5041370;28;20495;-78
2022/03/09 10:28:56;;;;;;;27.45;12.77;;;;;;;6.57;46.74;102027.38;5042974;28;20075;-78
2022/03/09 10:31:48;;;;;;;28.98;12.93;;;;;;;6.64;46.07;102031.56;5059097;28;20020;-78
2022/03/09 10:34:15;;;;;;;27.27;12.65;;;;;;;6.71;46.57;102028.66;5064879;28;20132;-78
2022/03/09 10:37:04;;;;;;;27.65;13.30;;;;;;;6.79;46.86;102029.22;5057076;28;20079;-78
2022/03/09 10:39:33;;;;;;;29.17;13.90;;;;;;;6.89;46.78;102035.97;5050704;28;20028;-78
2022/03/09 10:41:58;;;;;;;28.25;13.57;;;;;;;6.98;46.19;102029.38;5030816;28;20039;-78
2022/03/09 10:44:44;;;;;;;34.28;14.35;;;;;;;7.05;46.20;102032.69;5061537;28;20028;-78
2022/03/09 10:47:10;;;;;;;30.83;14.25;;;;;;;7.13;45.85;102030.56;5050682;28;20035;-78
2022/03/09 10:49:36;;;;;;;25.70;13.15;;;;;;;7.22;45.90;102032.91;5036935;28;20515;-78
2022/03/09 10:52:01;;;;;;;26.75;13.25;;;;;;;7.27;45.40;102033.56;5048608;28;20029;-78
2022/03/09 10:54:32;;;;;;;30.33;14.90;;;;;;;7.33;45.74;102030.63;5030081;28;20033;-78
2022/03/09 10:57:10;;;;;;;30.05;13.40;;;;;;;7.40;45.52;102036.63;5058689;28;20036;-78
2022/03/09 10:59:47;;;;;;;28.98;13.98;;;;;;;7.46;45.39;102030.16;5031787;28;20037;-78
2022/03/09 11:02:14;;;;;;;28.05;15.18;;;;;;;7.55;46.12;102034.25;5046172;28;20051;-78
2022/03/09 11:04:40;;;;;;;32.45;14.63;;;;;;;7.57;44.97;102032.38;5067055;28;20036;-78
2022/03/09 11:07:06;;;;;;;28.90;13.90;;;;;;;7.65;45.28;102033.78;5052568;28;20524;-78
2022/03/09 11:09:31;;;;;;;31.83;14.90;;;;;;;7.74;44.93;102042.38;5031130;28;20054;-78
2022/03/09 11:11:57;;;;;;;30.67;14.68;;;;;;;7.80;44.94;102031.41;5047133;28;20091;-78
2022/03/09 11:14:26;;;;;;;33.28;15.18;;;;;;;7.92;45.81;102033.56;5053009;28;20047;-79
2022/03/09 11:16:52;;;;;;;30.77;15.23;;;;;;;7.99;45.54;102023.47;5068774;28;20016;-78
2022/03/09 11:19:18;;;;;;;28.75;14.25;;;;;;;8.03;45.09;102022.38;5052945;28;20045;-78
2022/03/09 11:21:43;;;;;;;29.77;14.65;;;;;;;8.11;45.27;102022.94;5048260;28;20134;-78